Time;durP1;ratioP1;P1;durP2;ratioP2;P2;SDS_P1;SDS_P2;PMS_P1;PMS_P2;Temp;Humidity;BMP_temperature;BMP_pressure;BME280_temperature;BME280_humidity;BME280_pressure;Samples;Min_cycle;Max_cycle;Signal;HPM_P1;HPM_P2
2023/11/02 00:02:06;;;;;;;19.00;12.60;;;;;;;14.01;100.00;99648.38;109365;1255;67137;-59
2023/11/02 00:04:34;;;;;;;15.20;12.20;;;;;;;14.04;100.00;99643.76;109423;1251;72721;-58
2023/11/02 00:07:01;;;;;;;16.20;13.70;;;;;;;14.07;100.00;99645.95;109424;1251;61792;-58
2023/11/02 00:09:36;;;;;;;16.40;12.30;;;;;;;14.10;100.00;99649.90;109417;1251;60069;-57
2023/11/02 00:12:07;;;;;;;16.00;13.10;;;;;;;14.13;100.00;99649.30;109424;1250;74737;-57
2023/11/02 00:14:51;;;;;;;14.10;11.80;;;;;;;14.16;100.00;99649.02;109430;1251;67065;-57
2023/11/02 00:17:35;;;;;;;16.50;12.20;;;;;;;14.21;100.00;99650.96;109436;1251;72753;-57
2023/11/02 00:20:11;;;;;;;20.90;15.10;;;;;;;14.24;100.00;99651.64;109410;1251;61701;-58
2023/11/02 00:22:48;;;;;;;18.10;11.70;;;;;;;14.26;100.00;99651.02;109360;1250;59015;-57
2023/11/02 00:25:55;;;;;;;16.70;12.20;;;;;;;14.30;100.00;99652.17;109443;1251;74842;-61
2023/11/02 00:28:23;;;;;;;16.90;12.40;;;;;;;14.34;100.00;99651.11;109350;1251;66315;-57
2023/11/02 00:30:51;;;;;;;16.20;11.90;;;;;;;14.38;100.00;99651.63;109389;1253;72745;-57
2023/11/02 00:33:19;;;;;;;16.80;12.80;;;;;;;14.40;100.00;99652.85;109431;1252;60597;-56
2023/11/02 00:35:51;;;;;;;16.70;11.70;;;;;;;14.42;100.00;99645.92;109429;1251;58939;-58
2023/11/02 00:38:24;;;;;;;16.90;12.20;;;;;;;14.44;100.00;99643.77;109400;1252;74662;-56
2023/11/02 00:40:52;;;;;;;15.50;11.40;;;;;;;14.45;100.00;99638.87;109346;1251;66133;-58
2023/11/02 00:43:21;;;;;;;18.00;12.70;;;;;;;14.47;100.00;99639.33;109376;1251;71270;-57
2023/11/02 00:45:51;;;;;;;16.00;11.50;;;;;;;14.47;100.00;99641.46;109400;1251;61756;-57
2023/11/02 00:48:20;;;;;;;17.80;12.90;;;;;;;14.49;100.00;99645.27;109369;1252;60082;-57
2023/11/02 00:50:57;;;;;;;13.90;11.70;;;;;;;14.50;100.00;99649.30;109404;1250;75209;-57
2023/11/02 00:53:24;;;;;;;15.40;11.30;;;;;;;14.52;100.00;99651.89;109441;1252;65664;-56
2023/11/02 00:55:52;;;;;;;15.00;11.90;;;;;;;14.53;100.00;99654.42;109354;1251;72644;-57
2023/11/02 00:58:26;;;;;;;14.40;11.50;;;;;;;14.55;100.00;99655.21;109401;1251;61829;-57
2023/11/02 01:00:59;;;;;;;13.60;11.70;;;;;;;14.57;100.00;99656.48;109331;1251;59210;-57
2023/11/02 01:03:27;;;;;;;13.20;11.40;;;;;;;14.59;100.00;99656.30;109458;1251;74757;-57
2023/11/02 01:05:55;;;;;;;13.80;10.60;;;;;;;14.60;100.00;99657.90;109351;1251;66970;-57
2023/11/02 01:08:28;;;;;;;14.40;11.40;;;;;;;14.61;100.00;99662.06;109319;1252;72487;-57
2023/11/02 01:10:56;;;;;;;17.80;12.20;;;;;;;14.61;100.00;99660.17;109278;1251;61760;-57
2023/11/02 01:13:24;;;;;;;13.40;10.60;;;;;;;14.60;100.00;99663.41;109442;1251;60493;-58
2023/11/02 01:16:08;;;;;;;13.70;10.70;;;;;;;14.61;100.00;99666.48;109352;1252;74738;-57
2023/11/02 01:18:43;;;;;;;16.30;12.00;;;;;;;14.63;100.00;99665.42;109463;1251;65895;-58
2023/11/02 01:21:11;;;;;;;14.80;11.00;;;;;;;14.64;100.00;99670.48;109407;1251;72094;-56
2023/11/02 01:23:39;;;;;;;14.90;10.30;;;;;;;14.63;100.00;99674.08;109174;1251;60445;-57
2023/11/02 01:26:08;;;;;;;11.20;9.10;;;;;;;14.62;100.00;99684.39;109301;1251;60257;-62
2023/11/02 01:28:54;;;;;;;7.10;4.80;;;;;;;14.56;100.00;99690.92;109280;1251;75108;-57
2023/11/02 01:31:22;;;;;;;6.40;3.70;;;;;;;14.41;100.00;99699.60;109392;1252;66883;-57
2023/11/02 01:33:59;;;;;;;4.60;2.40;;;;;;;14.23;100.00;99708.44;109390;1252;72736;-60
2023/11/02 01:36:29;;;;;;;4.00;2.50;;;;;;;14.07;100.00;99708.15;109341;1252;60465;-56
2023/11/02 01:39:05;;;;;;;3.40;1.70;;;;;;;13.92;100.00;99713.39;109421;1251;59030;-57
2023/11/02 01:41:49;;;;;;;3.10;1.80;;;;;;;13.81;100.00;99711.33;109313;1251;73458;-60
2023/11/02 01:44:22;;;;;;;3.10;1.80;;;;;;;13.71;100.00;99706.60;109384;1251;67259;-57
2023/11/02 01:47:02;;;;;;;3.60;2.00;;;;;;;13.65;100.00;99708.55;109357;1251;71467;-57
2023/11/02 01:49:38;;;;;;;5.10;1.90;;;;;;;13.59;100.00;99711.21;109348;1251;61951;-56
2023/11/02 01:52:15;;;;;;;3.70;1.70;;;;;;;13.56;100.00;99707.09;109449;1251;60520;-57
2023/11/02 01:54:58;;;;;;;2.60;1.40;;;;;;;13.52;100.00;99706.38;109474;1251;73229;-57
2023/11/02 01:57:44;;;;;;;3.40;1.60;;;;;;;13.45;100.00;99702.71;109240;1251;219136;-56
2023/11/02 02:00:15;;;;;;;3.20;1.80;;;;;;;13.40;100.00;99707.68;109305;1251;72683;-56
2023/11/02 02:02:52;;;;;;;3.50;1.80;;;;;;;13.34;100.00;99707.00;109261;1251;61959;-57
2023/11/02 02:05:34;;;;;;;3.60;1.50;;;;;;;13.29;100.00;99709.66;109279;1251;59408;-56
2023/11/02 02:08:37;;;;;;;4.20;2.10;;;;;;;13.27;100.00;99708.61;109386;1252;73395;-60
2023/11/02 02:11:33;;;;;;;4.80;2.20;;;;;;;13.23;100.00;99712.92;109276;1253;65540;-57
2023/11/02 02:14:11;;;;;;;3.70;2.60;;;;;;;13.20;100.00;99715.58;109201;1253;72819;-56
2023/11/02 02:16:55;;;;;;;4.30;2.30;;;;;;;13.20;100.00;99722.84;109405;1253;60454;-56
2023/11/02 02:19:50;;;;;;;3.90;2.40;;;;;;;13.17;100.00;99728.81;109228;1252;60110;-57
2023/11/02 02:22:21;;;;;;;4.80;3.10;;;;;;;13.15;100.00;99735.23;109249;1252;74678;-60
2023/11/02 02:25:21;;;;;;;5.10;3.30;;;;;;;13.15;100.00;99739.55;109435;1252;65640;-56
2023/11/02 02:28:17;;;;;;;5.50;2.70;;;;;;;13.14;100.00;99745.06;109377;1252;74948;-59
2023/11/02 02:30:45;;;;;;;3.90;2.60;;;;;;;13.13;100.00;99746.39;109285;1252;60457;-57
2023/11/02 02:33:13;;;;;;;6.00;2.90;;;;;;;13.13;100.00;99748.73;109447;1252;59324;-56
2023/11/02 02:35:55;;;;;;;5.20;2.90;;;;;;;13.13;100.00;99753.08;109378;1252;74741;-57
2023/11/02 02:38:29;;;;;;;5.30;3.10;;;;;;;13.14;100.00;99754.04;109279;1251;67426;-56
2023/11/02 02:41:00;;;;;;;4.70;3.20;;;;;;;13.14;100.00;99751.91;109265;1251;70940;-56
2023/11/02 02:43:27;;;;;;;6.00;3.60;;;;;;;13.14;100.00;99754.52;109344;1250;60807;-56
2023/11/02 02:45:55;;;;;;;4.20;2.90;;;;;;;13.14;100.00;99758.55;109265;1251;59171;-56
2023/11/02 02:48:22;;;;;;;5.10;3.20;;;;;;;13.14;100.00;99754.73;109448;1251;74720;-57
2023/11/02 02:50:55;;;;;;;5.90;3.90;;;;;;;13.13;100.00;99758.99;109392;1251;67535;-56
2023/11/02 02:53:25;;;;;;;8.10;3.60;;;;;;;13.12;100.00;99759.24;109435;1251;72692;-57
2023/11/02 02:55:56;;;;;;;5.10;3.60;;;;;;;13.12;100.00;99757.08;109236;1251;60583;-56
2023/11/02 02:58:23;;;;;;;5.10;3.60;;;;;;;13.11;100.00;99755.12;109483;1251;59041;-56
2023/11/02 03:00:51;;;;;;;7.30;4.00;;;;;;;13.11;100.00;99754.43;109403;1251;74622;-56
2023/11/02 03:03:20;;;;;;;5.30;3.30;;;;;;;13.11;100.00;99758.81;109472;1251;65692;-56
2023/11/02 03:05:48;;;;;;;5.40;3.90;;;;;;;13.10;100.00;99759.09;109462;1251;73286;-55
2023/11/02 03:08:16;;;;;;;5.30;3.80;;;;;;;13.09;100.00;99758.86;109233;1251;61612;-56
2023/11/02 03:10:44;;;;;;;5.20;3.70;;;;;;;13.09;100.00;99759.95;109497;1251;58882;-56
2023/11/02 03:13:14;;;;;;;7.60;5.00;;;;;;;13.09;100.00;99767.04;109454;1251;74697;-55
2023/11/02 03:15:42;;;;;;;6.10;4.10;;;;;;;13.07;100.00;99765.88;109167;1251;65635;-55
2023/11/02 03:18:11;;;;;;;5.70;4.30;;;;;;;13.04;100.00;99760.75;109400;1251;71441;-56
2023/11/02 03:20:41;;;;;;;6.70;4.10;;;;;;;13.01;100.00;99759.59;109393;1251;60470;-55
2023/11/02 03:23:14;;;;;;;7.50;4.90;;;;;;;13.00;100.00;99757.35;109492;1251;60221;-55
2023/11/02 03:26:14;;;;;;;6.80;4.20;;;;;;;12.98;100.00;99760.38;109422;1251;75685;-55
2023/11/02 03:28:48;;;;;;;6.60;4.10;;;;;;;12.95;100.00;99766.92;109289;1251;65173;-55
2023/11/02 03:31:42;;;;;;;6.40;4.20;;;;;;;12.93;100.00;99770.84;109400;1251;71689;-55
2023/11/02 03:34:25;;;;;;;5.70;4.30;;;;;;;12.91;100.00;99772.25;109447;1251;60413;-55
2023/11/02 03:37:18;;;;;;;5.80;3.70;;;;;;;12.89;100.00;99774.69;109404;1251;59447;-55
2023/11/02 03:39:55;;;;;;;5.10;3.50;;;;;;;12.86;100.00;99772.80;109385;1250;74750;-55
2023/11/02 03:42:44;;;;;;;5.50;3.40;;;;;;;12.84;100.00;99774.11;109367;1251;66959;-55
2023/11/02 03:45:31;;;;;;;6.30;3.50;;;;;;;12.83;100.00;99774.79;109478;1251;72758;-54
2023/11/02 03:48:26;;;;;;;5.20;3.40;;;;;;;12.81;100.00;99774.88;109449;1252;61732;-55
2023/11/02 03:51:13;;;;;;;4.00;2.80;;;;;;;12.78;100.00;99777.03;109432;1251;60157;-55
2023/11/02 03:53:56;;;;;;;4.70;3.20;;;;;;;12.76;100.00;99776.88;109442;1253;73474;-55
2023/11/02 03:56:48;;;;;;;6.40;3.10;;;;;;;12.73;100.00;99784.53;109536;1251;66830;-55
2023/11/02 03:59:25;;;;;;;6.50;2.80;;;;;;;12.72;100.00;99788.15;109324;1252;72753;-55
2023/11/02 04:02:02;;;;;;;5.80;3.10;;;;;;;12.71;100.00;99790.63;109457;1251;61773;-55
2023/11/02 04:04:41;;;;;;;3.90;2.50;;;;;;;12.68;100.00;99792.73;109379;1251;59316;-55
2023/11/02 04:07:22;;;;;;;4.10;2.60;;;;;;;12.65;100.00;99804.77;109363;1251;74728;-54
2023/11/02 04:09:53;;;;;;;4.60;2.60;;;;;;;12.62;100.00;99814.23;109465;1251;65490;-55
2023/11/02 04:12:34;;;;;;;3.60;2.10;;;;;;;12.58;100.00;99810.06;109497;1251;72721;-55
2023/11/02 04:15:02;;;;;;;4.50;2.50;;;;;;;12.52;100.00;99816.32;109471;1251;61817;-55
2023/11/02 04:17:30;;;;;;;3.00;2.10;;;;;;;12.45;100.00;99824.75;109443;1251;60345;-58
2023/11/02 04:19:58;;;;;;;3.10;2.30;;;;;;;12.38;100.00;99827.10;109484;1252;74738;-56
2023/11/02 04:22:26;;;;;;;3.80;2.30;;;;;;;12.31;100.00;99830.38;109523;1251;65873;-55
2023/11/02 04:24:54;;;;;;;5.50;2.60;;;;;;;12.25;100.00;99833.11;109402;1251;72752;-55
2023/11/02 04:27:21;;;;;;;3.40;2.30;;;;;;;12.21;100.00;99838.95;109263;1251;60372;-57
2023/11/02 04:29:49;;;;;;;4.10;2.70;;;;;;;12.15;100.00;99842.30;109381;1252;60042;-60
2023/11/02 04:32:17;;;;;;;3.40;2.30;;;;;;;12.11;100.00;99843.86;109426;1256;73110;-56
2023/11/02 04:34:45;;;;;;;3.90;2.50;;;;;;;12.09;100.00;99849.75;109478;1251;66637;-55
2023/11/02 04:37:16;;;;;;;4.20;2.50;;;;;;;12.06;100.00;99861.08;109486;1253;72737;-54
2023/11/02 04:39:44;;;;;;;4.20;3.20;;;;;;;12.02;100.00;99866.87;109398;1251;62040;-57
2023/11/02 04:42:11;;;;;;;4.00;2.60;;;;;;;12.00;100.00;99871.85;109431;1252;60026;-54
2023/11/02 04:44:40;;;;;;;3.30;2.40;;;;;;;11.98;100.00;99874.15;109454;1251;73417;-55
2023/11/02 04:47:08;;;;;;;4.10;2.50;;;;;;;11.97;100.00;99879.38;109484;1251;66851;-55
2023/11/02 04:49:35;;;;;;;4.40;2.40;;;;;;;11.95;100.00;99885.95;109497;1251;72723;-58
2023/11/02 04:52:04;;;;;;;3.90;2.80;;;;;;;11.92;100.00;99880.89;109491;1251;60453;-55
2023/11/02 04:54:31;;;;;;;3.80;2.70;;;;;;;11.91;100.00;99887.61;109465;1251;59031;-54
2023/11/02 04:57:03;;;;;;;3.50;2.40;;;;;;;11.90;100.00;99887.53;109499;1251;74635;-54
2023/11/02 04:59:43;;;;;;;5.00;2.30;;;;;;;11.90;100.00;99894.09;109425;1251;66230;-59
2023/11/02 05:02:11;;;;;;;4.80;2.80;;;;;;;11.92;100.00;99895.71;109453;1254;70905;-54
2023/11/02 05:04:39;;;;;;;4.70;2.70;;;;;;;11.92;100.00;99898.98;109496;1251;60331;-56
2023/11/02 05:07:06;;;;;;;4.50;2.80;;;;;;;11.95;100.00;99907.23;109339;1250;58987;-55
2023/11/02 05:09:34;;;;;;;4.40;2.00;;;;;;;11.96;100.00;99904.29;109497;1251;74730;-59
2023/11/02 05:12:02;;;;;;;3.30;2.10;;;;;;;12.00;100.00;99907.09;109490;1251;66903;-55
2023/11/02 05:14:29;;;;;;;3.50;2.00;;;;;;;12.03;100.00;99911.55;109509;1252;71226;-55
2023/11/02 05:16:57;;;;;;;3.00;2.10;;;;;;;12.08;100.00;99913.98;109501;1251;61694;-56
2023/11/02 05:19:24;;;;;;;3.60;2.40;;;;;;;12.16;100.00;99914.38;109380;1251;59062;-56
2023/11/02 05:21:52;;;;;;;3.50;2.20;;;;;;;12.32;100.00;99912.59;109474;1251;73539;-54
2023/11/02 05:24:20;;;;;;;2.90;2.10;;;;;;;12.44;100.00;99902.45;109474;1256;65719;-55
2023/11/02 05:26:47;;;;;;;4.10;2.20;;;;;;;12.51;100.00;99905.09;109462;1251;72744;-56
2023/11/02 05:29:15;;;;;;;3.10;2.20;;;;;;;12.77;100.00;99906.52;109477;1251;62197;-56
2023/11/02 05:31:43;;;;;;;3.30;2.10;;;;;;;13.22;100.00;99907.29;109421;1251;59528;-55
2023/11/02 05:34:10;;;;;;;3.40;2.20;;;;;;;13.77;100.00;99907.73;109514;1251;73743;-56
2023/11/02 05:36:38;;;;;;;3.00;1.80;;;;;;;14.41;100.00;99905.63;109528;1251;67678;-55
2023/11/02 05:39:06;;;;;;;3.70;1.90;;;;;;;14.98;100.00;99908.23;109457;1251;71385;-56
2023/11/02 05:41:34;;;;;;;2.70;1.80;;;;;;;15.31;100.00;99901.00;109443;1253;60162;-56
2023/11/02 05:44:01;;;;;;;3.50;1.90;;;;;;;15.40;100.00;99894.96;109489;1251;60641;-56
2023/11/02 05:46:29;;;;;;;5.40;2.60;;;;;;;15.37;100.00;99888.19;109460;1251;74681;-55
2023/11/02 05:48:57;;;;;;;3.00;1.90;;;;;;;15.31;100.00;99879.90;109491;1251;65895;-56
2023/11/02 05:51:25;;;;;;;2.50;1.90;;;;;;;15.14;100.00;99874.15;109494;1251;71365;-55
2023/11/02 05:53:53;;;;;;;3.50;2.40;;;;;;;14.87;100.00;99871.86;109416;1253;60124;-59
2023/11/02 05:56:20;;;;;;;2.80;1.90;;;;;;;14.54;100.00;99864.26;109500;1251;60148;-55
2023/11/02 05:58:53;;;;;;;3.50;1.90;;;;;;;14.30;100.00;99863.73;109474;1251;74745;-56
2023/11/02 06:01:21;;;;;;;3.10;2.20;;;;;;;14.12;100.00;99869.23;109482;1251;67002;-55
2023/11/02 06:03:48;;;;;;;3.70;2.40;;;;;;;14.00;100.00;99873.76;109483;1251;72659;-56
2023/11/02 06:06:16;;;;;;;5.50;2.60;;;;;;;13.86;100.00;99877.27;109472;1251;60139;-56
2023/11/02 06:08:44;;;;;;;3.80;2.40;;;;;;;13.68;100.00;99882.15;109514;1251;60106;-55
2023/11/02 06:11:11;;;;;;;3.40;2.10;;;;;;;13.51;100.00;99882.39;109470;1251;74781;-55
2023/11/02 06:13:39;;;;;;;4.00;1.90;;;;;;;13.37;100.00;99889.67;109489;1251;65716;-56
2023/11/02 06:16:07;;;;;;;5.20;2.30;;;;;;;13.27;100.00;99893.88;109428;1252;72746;-55
2023/11/02 06:18:35;;;;;;;4.00;2.80;;;;;;;13.18;100.00;99902.14;109464;1253;59269;-56
2023/11/02 06:21:03;;;;;;;4.50;2.80;;;;;;;13.13;100.00;99905.46;109543;1251;59134;-57
2023/11/02 06:23:30;;;;;;;4.40;3.20;;;;;;;13.13;100.00;99906.71;109494;1251;74721;-56
2023/11/02 06:25:58;;;;;;;4.70;2.50;;;;;;;13.13;100.00;99905.67;109506;1251;67072;-59
2023/11/02 06:28:26;;;;;;;5.00;2.80;;;;;;;13.16;100.00;99912.95;109441;1251;71809;-55
2023/11/02 06:30:53;;;;;;;5.30;3.30;;;;;;;13.24;100.00;99916.30;109434;1251;59029;-55
2023/11/02 06:33:29;;;;;;;3.80;2.50;;;;;;;13.29;100.00;99921.05;109487;1251;58911;-55
2023/11/02 06:35:57;;;;;;;5.10;2.20;;;;;;;13.31;100.00;99922.92;109344;1251;74663;-56
2023/11/02 06:38:24;;;;;;;3.80;3.10;;;;;;;13.35;100.00;99924.52;109455;1252;67944;-56
2023/11/02 06:40:52;;;;;;;3.60;2.70;;;;;;;13.67;100.00;99927.41;109484;1251;72780;-55
2023/11/02 06:43:19;;;;;;;3.40;2.00;;;;;;;14.13;100.00;99925.15;109493;1251;59167;-55
2023/11/02 06:45:47;;;;;;;3.40;2.10;;;;;;;14.68;100.00;99922.89;109482;1251;59407;-56
2023/11/02 06:48:14;;;;;;;3.10;2.00;;;;;;;14.97;100.00;99909.25;109436;1251;73833;-57
2023/11/02 06:50:46;;;;;;;2.90;1.90;;;;;;;14.90;100.00;99902.38;109488;1251;65498;-55
2023/11/02 06:53:14;;;;;;;5.70;2.20;;;;;;;14.84;100.00;99894.71;109437;1251;71473;-55
2023/11/02 06:55:42;;;;;;;3.50;1.90;;;;;;;14.91;100.00;99889.14;109460;1251;60139;-56
2023/11/02 06:58:09;;;;;;;3.40;2.10;;;;;;;15.05;100.00;99885.33;109453;1251;60548;-59
2023/11/02 07:00:37;;;;;;;4.30;1.80;;;;;;;15.22;100.00;99876.22;109447;1256;73720;-55
2023/11/02 07:03:05;;;;;;;2.90;1.80;;;;;;;15.37;100.00;99869.36;109462;1251;65695;-55
2023/11/02 07:05:32;;;;;;;2.60;1.70;;;;;;;15.48;100.00;99865.37;109469;1251;71365;-55
2023/11/02 07:08:00;;;;;;;2.80;1.70;;;;;;;15.65;100.00;99865.33;109432;1251;59311;-57
2023/11/02 07:10:28;;;;;;;2.70;1.80;;;;;;;15.88;100.00;99864.17;109464;1251;58976;-59
2023/11/02 07:12:55;;;;;;;3.20;2.20;;;;;;;16.19;100.00;99861.45;109554;1251;74716;-56
2023/11/02 07:15:23;;;;;;;3.10;1.90;;;;;;;16.38;100.00;99855.34;109503;1251;67231;-55
2023/11/02 07:17:51;;;;;;;3.70;2.20;;;;;;;16.25;100.00;99852.70;109432;1251;72935;-58
2023/11/02 07:20:19;;;;;;;3.40;1.40;;;;;;;16.01;100.00;99855.22;109399;1253;59350;-62
2023/11/02 07:22:47;;;;;;;2.50;1.60;;;;;;;15.93;100.00;99858.39;109428;1251;58983;-58
2023/11/02 07:25:14;;;;;;;3.00;1.40;;;;;;;15.97;100.00;99855.50;109502;1251;73527;-59
2023/11/02 07:27:42;;;;;;;2.50;1.50;;;;;;;16.11;100.00;99852.33;109457;1253;66234;-58
2023/11/02 07:30:11;;;;;;;3.50;1.30;;;;;;;16.34;100.00;99847.89;109431;1251;72432;-60
2023/11/02 07:32:38;;;;;;;2.50;1.30;;;;;;;16.48;100.00;99851.14;109441;1252;61000;-58
2023/11/02 07:35:07;;;;;;;2.00;1.20;;;;;;;16.62;100.00;99849.90;109472;1251;59543;-59
2023/11/02 07:37:35;;;;;;;2.40;1.30;;;;;;;16.93;100.00;99843.31;109548;1251;75103;-58
2023/11/02 07:40:04;;;;;;;2.90;1.30;;;;;;;17.29;100.00;99847.77;109491;1251;65944;-58
2023/11/02 07:42:32;;;;;;;2.30;1.20;;;;;;;17.59;100.00;99846.48;109448;1253;72507;-60
2023/11/02 07:45:00;;;;;;;2.50;1.30;;;;;;;17.94;100.00;99852.48;109480;1251;59449;-57
2023/11/02 07:47:27;;;;;;;2.10;1.10;;;;;;;18.30;100.00;99844.81;109508;1251;60108;-57
2023/11/02 07:49:56;;;;;;;1.80;1.00;;;;;;;18.59;100.00;99847.50;109548;1251;74757;-56
2023/11/02 07:52:24;;;;;;;2.40;1.20;;;;;;;18.86;100.00;99857.46;109455;1251;65686;-57
2023/11/02 07:54:51;;;;;;;3.10;1.70;;;;;;;19.05;100.00;99858.05;109479;1251;72955;-57
2023/11/02 07:57:19;;;;;;;1.80;1.20;;;;;;;19.23;100.00;99855.58;109464;1254;59195;-57
2023/11/02 07:59:47;;;;;;;2.00;1.40;;;;;;;19.40;100.00;99855.00;109483;1251;59201;-57
2023/11/02 08:02:14;;;;;;;2.40;1.30;;;;;;;19.53;100.00;99855.58;109516;1251;73421;-63
2023/11/02 08:04:42;;;;;;;2.20;1.10;;;;;;;19.63;100.00;99857.23;109442;1251;66273;-58
2023/11/02 08:07:10;;;;;;;2.40;1.10;;;;;;;19.65;100.00;99853.48;109452;1252;70758;-57
2023/11/02 08:09:37;;;;;;;2.00;1.10;;;;;;;19.67;100.00;99860.60;109464;1251;59014;-56
2023/11/02 08:12:08;;;;;;;2.50;1.20;;;;;;;19.67;100.00;99863.25;109511;1250;59359;-56
2023/11/02 08:14:36;;;;;;;2.60;1.20;;;;;;;19.46;100.00;99863.87;109442;1251;74700;-56
2023/11/02 08:17:05;;;;;;;2.80;1.30;;;;;;;19.01;100.00;99869.51;109507;1251;67295;-56
2023/11/02 08:19:32;;;;;;;2.50;1.40;;;;;;;18.52;100.00;99865.80;109445;1253;71549;-56
2023/11/02 08:22:00;;;;;;;2.40;1.40;;;;;;;18.20;100.00;99872.27;109435;1251;60148;-59
2023/11/02 08:24:28;;;;;;;2.50;1.30;;;;;;;18.13;100.00;99870.59;109444;1253;60507;-56
2023/11/02 08:26:55;;;;;;;3.80;1.60;;;;;;;18.29;100.00;99874.14;109457;1251;74808;-57
2023/11/02 08:29:23;;;;;;;2.20;1.20;;;;;;;18.55;100.00;99867.48;109417;1254;67157;-56
2023/11/02 08:31:51;;;;;;;2.90;1.20;;;;;;;18.87;100.00;99866.45;109429;1253;72798;-59
2023/11/02 08:34:18;;;;;;;4.50;2.00;;;;;;;19.26;100.00;99866.34;109373;1251;59494;-56
2023/11/02 08:36:47;;;;;;;3.00;1.90;;;;;;;19.38;100.00;99866.13;109436;1254;61114;-56
2023/11/02 08:39:14;;;;;;;3.30;1.80;;;;;;;19.32;100.00;99870.20;109446;1251;74788;-56
2023/11/02 08:41:42;;;;;;;4.50;2.50;;;;;;;19.31;100.00;99873.25;109467;1251;65292;-57
2023/11/02 08:44:09;;;;;;;4.50;2.30;;;;;;;19.46;100.00;99868.52;109428;1252;72852;-57
2023/11/02 08:46:37;;;;;;;3.30;1.70;;;;;;;19.66;100.00;99869.89;109419;1252;59371;-56
2023/11/02 08:49:05;;;;;;;3.10;1.70;;;;;;;19.81;100.00;99866.78;109491;1251;60108;-57
2023/11/02 08:51:33;;;;;;;4.40;2.60;;;;;;;19.99;100.00;99873.91;109463;1251;74811;-57
2023/11/02 08:54:02;;;;;;;3.20;2.00;;;;;;;20.00;98.02;99866.44;109479;1251;65897;-58
2023/11/02 08:56:30;;;;;;;4.60;2.60;;;;;;;19.87;98.13;99869.89;109417;1251;71800;-60
2023/11/02 08:58:58;;;;;;;3.40;1.80;;;;;;;19.71;97.78;99866.17;109412;1251;59327;-58
2023/11/02 09:01:26;;;;;;;4.60;2.60;;;;;;;19.38;95.86;99874.11;109470;1251;60153;-58
2023/11/02 09:03:55;;;;;;;5.00;2.90;;;;;;;18.91;99.86;99876.84;109505;1256;73321;-58
2023/11/02 09:06:24;;;;;;;3.40;1.80;;;;;;;18.49;100.00;99871.92;109435;1251;66883;-58
2023/11/02 09:08:57;;;;;;;4.50;2.00;;;;;;;18.22;100.00;99872.36;109397;1255;71452;-59
2023/11/02 09:11:25;;;;;;;3.40;2.00;;;;;;;18.12;100.00;99869.15;109371;1253;60122;-58
2023/11/02 09:13:57;;;;;;;3.50;1.90;;;;;;;18.02;100.00;99872.91;109431;1251;59110;-59
2023/11/02 09:16:26;;;;;;;5.40;2.10;;;;;;;17.88;100.00;99872.53;109367;1256;74141;-61
2023/11/02 09:18:58;;;;;;;3.40;1.90;;;;;;;17.83;100.00;99872.09;109420;1255;67713;-56
2023/11/02 09:21:27;;;;;;;3.90;1.90;;;;;;;18.06;100.00;99869.44;109433;1254;72754;-57
2023/11/02 09:23:55;;;;;;;3.80;1.80;;;;;;;18.49;100.00;99863.38;109471;1254;60252;-63
2023/11/02 09:26:23;;;;;;;4.50;1.90;;;;;;;18.92;100.00;99864.66;109376;1251;59351;-56
2023/11/02 09:28:50;;;;;;;3.00;1.80;;;;;;;19.34;100.00;99864.83;109486;1251;73440;-56
2023/11/02 09:31:18;;;;;;;4.10;1.60;;;;;;;19.80;100.00;99861.00;109469;1251;65686;-56
2023/11/02 09:33:47;;;;;;;5.60;2.90;;;;;;;20.19;99.63;99856.98;109502;1251;71482;-56
2023/11/02 09:36:15;;;;;;;5.50;2.80;;;;;;;20.55;97.27;99848.61;109405;1251;62112;-63
2023/11/02 09:38:43;;;;;;;5.40;2.60;;;;;;;20.91;86.23;99847.45;109452;1251;59250;-57
2023/11/02 09:41:11;;;;;;;4.20;2.20;;;;;;;21.13;78.69;99846.66;109396;1251;73011;-57
2023/11/02 09:43:39;;;;;;;4.90;2.30;;;;;;;21.36;75.26;99845.75;109463;1250;66755;-56
2023/11/02 09:46:07;;;;;;;2.50;1.60;;;;;;;21.61;70.43;99841.84;109431;1254;73589;-57
2023/11/02 09:48:34;;;;;;;3.90;1.80;;;;;;;21.73;61.00;99835.00;109402;1251;63411;-56
2023/11/02 09:51:02;;;;;;;3.00;1.60;;;;;;;21.59;55.30;99832.25;109478;1251;60042;-57
2023/11/02 09:53:30;;;;;;;2.70;1.70;;;;;;;21.21;50.11;99837.45;109448;1251;77428;-61
2023/11/02 09:55:58;;;;;;;3.30;2.00;;;;;;;20.82;51.88;99843.20;109446;1250;69508;-57
2023/11/02 09:58:25;;;;;;;2.90;1.80;;;;;;;20.57;57.49;99840.99;109412;1251;73290;-60
2023/11/02 10:00:53;;;;;;;3.60;1.90;;;;;;;20.53;61.76;99842.40;109456;1251;60126;-56
2023/11/02 10:03:21;;;;;;;4.20;1.90;;;;;;;20.64;64.75;99843.30;109432;1251;63287;-58
2023/11/02 10:05:50;;;;;;;3.50;2.10;;;;;;;20.75;65.58;99847.42;109437;1251;75731;-57
2023/11/02 10:08:18;;;;;;;2.80;1.60;;;;;;;20.77;65.42;99845.20;109350;1251;68150;-57
2023/11/02 10:10:46;;;;;;;4.40;2.20;;;;;;;20.68;65.27;99853.59;109467;1251;74952;-56
2023/11/02 10:13:14;;;;;;;2.70;1.60;;;;;;;20.47;63.61;99852.42;109392;1251;63140;-57
2023/11/02 10:15:42;;;;;;;3.40;1.50;;;;;;;20.19;65.63;99857.66;109454;1254;59246;-58
2023/11/02 10:18:14;;;;;;;4.00;2.10;;;;;;;20.04;69.74;99856.47;109339;1251;75132;-63
2023/11/02 10:20:45;;;;;;;3.40;1.70;;;;;;;20.08;73.57;99861.45;109403;1253;68900;-58
2023/11/02 10:23:13;;;;;;;3.00;1.50;;;;;;;20.17;68.14;99861.53;109474;1251;74556;-59
2023/11/02 10:25:41;;;;;;;2.30;1.50;;;;;;;20.15;65.16;99864.79;109451;1251;62171;-60
2023/11/02 10:28:12;;;;;;;2.60;1.60;;;;;;;19.97;64.63;99860.13;109425;1251;61052;-61
2023/11/02 10:30:41;;;;;;;2.70;1.50;;;;;;;19.65;64.68;99872.82;109427;1254;75523;-57
2023/11/02 10:33:09;;;;;;;2.80;1.70;;;;;;;19.19;68.25;99874.88;109473;1251;68876;-58
2023/11/02 10:35:41;;;;;;;2.60;1.50;;;;;;;18.70;76.20;99875.64;109441;1251;74797;-56
2023/11/02 10:38:11;;;;;;;2.20;1.10;;;;;;;18.27;82.13;99874.02;109442;1251;61051;-57
2023/11/02 10:40:43;;;;;;;2.50;1.40;;;;;;;17.89;86.99;99878.94;109432;1251;60894;-56
2023/11/02 10:43:18;;;;;;;2.30;1.40;;;;;;;17.57;89.28;99879.80;109447;1251;77120;-57
2023/11/02 10:45:52;;;;;;;3.30;1.40;;;;;;;17.29;93.98;99885.95;109413;1251;69670;-63
2023/11/02 10:48:20;;;;;;;2.80;1.30;;;;;;;17.17;98.20;99885.64;109490;1251;74100;-57
2023/11/02 10:50:50;;;;;;;2.20;1.00;;;;;;;17.17;95.64;99880.21;109428;1253;60292;-57
2023/11/02 10:53:39;;;;;;;2.40;0.90;;;;;;;17.12;96.89;99884.71;109471;1251;62900;-56
2023/11/02 10:56:12;;;;;;;3.20;1.20;;;;;;;17.21;100.00;99878.70;109481;1251;77634;-56
2023/11/02 10:58:40;;;;;;;1.90;1.10;;;;;;;17.33;99.58;99878.60;109429;1251;69213;-56
2023/11/02 11:01:09;;;;;;;2.60;1.40;;;;;;;17.32;99.92;99883.74;109420;1253;74789;-62
2023/11/02 11:03:37;;;;;;;3.40;1.10;;;;;;;17.17;96.82;99883.97;109391;1251;62841;-56
2023/11/02 11:06:05;;;;;;;2.40;1.10;;;;;;;16.91;86.84;99884.95;109383;1254;62658;-56
2023/11/02 11:08:32;;;;;;;2.40;1.10;;;;;;;16.59;85.88;99892.15;109350;1251;76722;-58
2023/11/02 11:11:00;;;;;;;2.30;0.90;;;;;;;16.26;91.15;99890.64;109471;1251;70552;-56
2023/11/02 11:13:28;;;;;;;1.90;1.00;;;;;;;15.95;96.68;99890.66;109259;1251;74231;-57
2023/11/02 11:15:55;;;;;;;2.30;1.00;;;;;;;15.80;100.00;99891.69;109430;1252;60955;-56
2023/11/02 11:18:23;;;;;;;3.30;1.00;;;;;;;15.79;99.86;99890.54;109364;1253;61155;-55
2023/11/02 11:20:51;;;;;;;1.70;0.80;;;;;;;15.70;97.41;99890.18;109425;1254;77720;-56
2023/11/02 11:23:19;;;;;;;2.00;0.90;;;;;;;15.54;99.67;99892.59;109415;1251;68266;-57
2023/11/02 11:25:56;;;;;;;2.50;1.40;;;;;;;15.45;100.00;99892.64;109334;1251;75971;-57
2023/11/02 11:28:29;;;;;;;3.90;2.00;;;;;;;15.60;100.00;99889.48;109443;1251;61575;-56
2023/11/02 11:31:00;;;;;;;3.70;2.00;;;;;;;15.89;100.00;99891.25;109481;1250;62130;-60
2023/11/02 11:33:47;;;;;;;4.90;2.60;;;;;;;16.09;100.00;99888.65;109449;1251;76317;-56
2023/11/02 11:36:27;;;;;;;4.30;2.10;;;;;;;16.10;100.00;99893.08;109396;1252;66022;-55